createdAt,value
2022-12-03T00:00:22.603Z,2.69
2022-12-03T00:03:11.029Z,2.69
2022-12-03T00:05:41.876Z,2.75
2022-12-03T00:08:17.053Z,2.76
2022-12-03T00:10:45.307Z,2.77
2022-12-03T00:13:13.560Z,2.79
2022-12-03T00:15:41.868Z,2.80
2022-12-03T00:18:10.177Z,2.82
2022-12-03T00:20:38.441Z,2.83
2022-12-03T00:23:06.664Z,2.87
2022-12-03T00:25:35.043Z,2.90
2022-12-03T00:28:03.369Z,2.93
2022-12-03T00:30:31.607Z,2.95
2022-12-03T00:32:59.881Z,2.94
2022-12-03T00:35:29.695Z,2.97
2022-12-03T00:37:57.968Z,2.96
2022-12-03T00:40:26.238Z,2.93
2022-12-03T00:42:54.486Z,2.91
2022-12-03T00:45:22.793Z,2.88
2022-12-03T00:47:51.075Z,2.84
2022-12-03T00:50:19.383Z,2.83
2022-12-03T00:52:47.592Z,2.84
2022-12-03T00:55:16.676Z,2.84
2022-12-03T00:57:44.965Z,2.86
2022-12-03T01:00:13.870Z,2.87
2022-12-03T01:02:42.195Z,2.90
2022-12-03T01:05:10.574Z,2.92
2022-12-03T01:07:38.910Z,2.93
2022-12-03T01:10:07.893Z,2.94
2022-12-03T01:12:36.239Z,2.97
2022-12-03T01:15:05.666Z,2.99
2022-12-03T01:17:33.942Z,3.01
2022-12-03T01:20:03.326Z,3.01
2022-12-03T01:22:31.613Z,3.02
2022-12-03T01:24:59.886Z,3.05
2022-12-03T01:27:28.119Z,3.04
2022-12-03T01:29:56.314Z,3.04
2022-12-03T01:32:24.505Z,3.04
2022-12-03T01:34:55.594Z,3.05
2022-12-03T01:37:26.054Z,3.05
2022-12-03T01:39:54.541Z,3.06
2022-12-03T01:42:26.375Z,3.07
2022-12-03T01:44:58.327Z,3.08
2022-12-03T01:47:31.822Z,3.12
2022-12-03T01:50:11.687Z,3.12
2022-12-03T01:52:41.020Z,3.09
2022-12-03T01:55:18.148Z,3.09
2022-12-03T01:57:50.245Z,3.08
2022-12-03T02:00:21.777Z,3.09
2022-12-03T02:02:53.535Z,3.10
2022-12-03T02:05:27.734Z,3.10
2022-12-03T02:07:56.854Z,3.09
2022-12-03T02:10:36.325Z,3.09
2022-12-03T02:13:11.105Z,3.09
2022-12-03T02:15:40.583Z,3.08
2022-12-03T02:18:10.047Z,3.06
2022-12-03T02:21:05.000Z,3.06
2022-12-03T02:23:42.994Z,3.05
2022-12-03T02:26:11.357Z,3.06
2022-12-03T02:28:39.974Z,3.06
2022-12-03T02:31:08.527Z,3.05
2022-12-03T02:33:36.925Z,3.07
2022-12-03T02:36:05.720Z,3.08
2022-12-03T02:38:35.840Z,3.08
2022-12-03T02:41:08.583Z,3.10
2022-12-03T02:43:37.106Z,3.13
2022-12-03T02:46:08.748Z,3.13
2022-12-03T02:48:40.138Z,3.11
2022-12-03T02:51:11.038Z,3.11
2022-12-03T02:53:42.616Z,3.10
2022-12-03T02:56:14.183Z,3.08
2022-12-03T02:58:45.224Z,3.09
2022-12-03T03:01:15.661Z,3.07
2022-12-03T03:03:45.823Z,3.06
2022-12-03T03:06:15.940Z,3.07
2022-12-03T03:08:44.341Z,3.08
2022-12-03T03:11:12.754Z,3.10
2022-12-03T03:13:41.240Z,3.10
2022-12-03T03:16:10.067Z,3.11
2022-12-03T03:18:38.824Z,3.12
2022-12-03T03:21:07.236Z,3.12
2022-12-03T03:23:35.451Z,3.12
2022-12-03T03:26:08.941Z,3.11
2022-12-03T03:28:40.427Z,3.11
2022-12-03T03:31:11.443Z,3.08
2022-12-03T03:33:41.771Z,3.06
2022-12-03T03:36:10.409Z,3.04
2022-12-03T03:38:39.428Z,3.04
2022-12-03T03:41:09.504Z,3.03
2022-12-03T03:43:39.058Z,3.02
2022-12-03T03:46:08.140Z,3.01
2022-12-03T03:48:36.708Z,3.03
2022-12-03T03:51:09.756Z,3.04
2022-12-03T03:53:44.457Z,3.03
2022-12-03T03:56:12.788Z,3.04
2022-12-03T03:58:41.397Z,3.03
2022-12-03T04:01:12.694Z,3.02
2022-12-03T04:03:41.341Z,3.01
2022-12-03T04:06:10.059Z,2.97
2022-12-03T04:08:38.252Z,2.95
2022-12-03T04:11:25.382Z,2.95
2022-12-03T04:13:53.663Z,2.94
2022-12-03T04:16:22.014Z,2.95
2022-12-03T04:18:50.982Z,2.95
2022-12-03T04:21:41.136Z,2.94
2022-12-03T04:24:11.288Z,2.95
2022-12-03T04:26:58.100Z,2.92
2022-12-03T04:29:26.389Z,2.90
2022-12-03T04:32:13.045Z,2.88
2022-12-03T04:34:59.694Z,2.86
2022-12-03T04:37:28.042Z,2.82
2022-12-03T04:39:56.308Z,2.79
2022-12-03T04:42:24.516Z,2.74
2022-12-03T04:44:53.163Z,2.72
2022-12-03T04:47:22.059Z,2.69
2022-12-03T04:49:51.841Z,2.66
2022-12-03T04:52:21.251Z,2.63
2022-12-03T04:54:49.488Z,2.60
2022-12-03T04:57:18.037Z,2.56
2022-12-03T04:59:46.331Z,2.54
2022-12-03T05:02:14.734Z,2.52
2022-12-03T05:04:43.936Z,2.48
2022-12-03T05:07:12.430Z,2.44
2022-12-03T05:09:40.651Z,2.41
2022-12-03T05:12:08.940Z,2.39
2022-12-03T05:14:37.247Z,2.34
2022-12-03T05:17:05.593Z,2.29
2022-12-03T05:19:52.243Z,2.24
2022-12-03T05:22:20.486Z,2.19
2022-12-03T05:24:48.720Z,2.15
2022-12-03T05:27:23.187Z,2.10
2022-12-03T05:29:53.048Z,2.07
2022-12-03T05:32:21.444Z,2.04
2022-12-03T05:34:49.756Z,2.02
2022-12-03T05:37:17.995Z,1.96
2022-12-03T05:39:46.212Z,1.92
2022-12-03T05:42:33.211Z,1.89
2022-12-03T05:45:01.412Z,1.87
2022-12-03T05:47:29.645Z,1.87
2022-12-03T05:49:57.950Z,1.86
2022-12-03T05:52:26.137Z,1.87
2022-12-03T05:54:55.474Z,1.85
2022-12-03T05:57:24.012Z,1.83
2022-12-03T05:59:52.210Z,1.83
2022-12-03T06:02:20.639Z,1.84
2022-12-03T06:04:49.305Z,1.86
2022-12-03T06:07:17.555Z,1.84
2022-12-03T06:09:46.201Z,1.81
2022-12-03T06:12:14.481Z,1.79
2022-12-03T06:14:42.718Z,1.79
2022-12-03T06:17:11.068Z,1.75
2022-12-03T06:19:39.352Z,1.76
2022-12-03T06:22:07.622Z,1.76
2022-12-03T06:24:35.849Z,1.76
2022-12-03T06:27:05.488Z,1.78
2022-12-03T06:29:33.768Z,1.81
2022-12-03T06:32:02.362Z,1.84
2022-12-03T06:34:31.038Z,1.88
2022-12-03T06:36:59.308Z,1.88
2022-12-03T06:39:27.752Z,1.91
2022-12-03T06:41:56.043Z,1.93
2022-12-03T06:44:24.359Z,1.96
2022-12-03T06:46:52.770Z,1.97
2022-12-03T06:49:21.225Z,2.00
2022-12-03T06:51:49.458Z,2.03
2022-12-03T06:54:17.769Z,2.03
2022-12-03T06:56:47.260Z,2.07
2022-12-03T06:59:15.564Z,2.11
2022-12-03T07:01:43.812Z,2.16
2022-12-03T07:04:12.110Z,2.20
2022-12-03T07:06:40.288Z,2.24
2022-12-03T07:09:08.554Z,2.29
2022-12-03T07:11:40.635Z,2.33
2022-12-03T07:14:11.388Z,2.38
2022-12-03T07:16:40.634Z,2.44
2022-12-03T07:19:09.877Z,2.51
2022-12-03T07:21:38.547Z,2.57
2022-12-03T07:24:07.104Z,2.63
2022-12-03T07:26:35.717Z,2.69
2022-12-03T07:29:04.304Z,2.76
2022-12-03T07:31:32.706Z,2.83
2022-12-03T07:34:02.448Z,2.89
2022-12-03T07:36:30.744Z,2.93
2022-12-03T07:38:58.992Z,2.99
2022-12-03T07:41:27.290Z,3.04
2022-12-03T07:43:55.545Z,3.07
2022-12-03T07:46:23.955Z,3.12
2022-12-03T07:48:52.308Z,3.17
2022-12-03T07:51:20.576Z,3.20
2022-12-03T07:53:48.863Z,3.22
2022-12-03T07:56:17.071Z,3.26
2022-12-03T07:58:45.300Z,3.31
2022-12-03T08:01:13.712Z,3.36
2022-12-03T08:03:43.167Z,3.42
2022-12-03T08:06:11.470Z,3.45
2022-12-03T08:08:40.102Z,3.49
2022-12-03T08:11:14.004Z,3.52
2022-12-03T08:13:42.626Z,3.54
2022-12-03T08:16:17.003Z,3.54
2022-12-03T08:18:46.638Z,3.50
2022-12-03T08:21:18.293Z,3.49
2022-12-03T08:23:46.625Z,3.51
2022-12-03T08:26:23.293Z,3.55
2022-12-03T08:28:53.204Z,3.58
2022-12-03T08:31:32.280Z,3.61
2022-12-03T08:34:21.070Z,3.62
2022-12-03T08:36:59.330Z,3.56
2022-12-03T08:39:37.995Z,3.47
2022-12-03T08:42:43.344Z,3.42
2022-12-03T08:45:29.719Z,3.36
2022-12-03T08:48:18.853Z,3.29
2022-12-03T08:50:47.586Z,3.27
2022-12-03T08:53:38.516Z,3.27
2022-12-03T08:56:23.838Z,3.23
2022-12-03T08:59:31.079Z,3.18
2022-12-03T09:01:59.980Z,3.24
2022-12-03T09:04:46.308Z,3.29
2022-12-03T09:07:14.546Z,3.31
2022-12-03T09:09:42.794Z,3.33
2022-12-03T09:12:11.013Z,3.35
2022-12-03T09:14:39.324Z,3.34
2022-12-03T09:17:07.741Z,3.29
2022-12-03T09:19:38.978Z,3.27
2022-12-03T09:22:09.632Z,3.29
2022-12-03T09:24:37.934Z,3.30
2022-12-03T09:27:06.148Z,3.35
2022-12-03T09:29:34.515Z,3.38
2022-12-03T09:32:02.918Z,3.41
2022-12-03T09:34:31.273Z,3.46
2022-12-03T09:36:59.622Z,3.49
2022-12-03T09:39:27.876Z,3.47
2022-12-03T09:41:56.351Z,3.47
2022-12-03T09:44:24.708Z,3.51
2022-12-03T09:46:53.036Z,3.53
2022-12-03T09:49:21.398Z,3.52
2022-12-03T09:51:49.693Z,3.51
2022-12-03T09:54:26.256Z,3.51
2022-12-03T09:56:55.989Z,3.53
2022-12-03T09:59:27.269Z,3.52
2022-12-03T10:01:55.947Z,3.54
2022-12-03T10:04:24.859Z,3.58
2022-12-03T10:06:53.235Z,3.59
2022-12-03T10:09:27.506Z,3.59
2022-12-03T10:11:57.486Z,3.59
2022-12-03T10:14:26.362Z,3.57
2022-12-03T10:16:55.255Z,3.57
2022-12-03T10:19:29.032Z,3.57
2022-12-03T10:21:58.072Z,3.60
2022-12-03T10:24:32.381Z,3.62
2022-12-03T10:27:04.310Z,3.66
2022-12-03T10:29:35.498Z,3.69
2022-12-03T10:32:08.028Z,3.72
2022-12-03T10:34:37.776Z,3.74
2022-12-03T10:37:13.491Z,3.79
2022-12-03T10:39:56.857Z,3.84
2022-12-03T10:42:31.555Z,3.85
2022-12-03T10:45:19.576Z,3.89
2022-12-03T10:48:11.089Z,3.93
2022-12-03T10:50:48.702Z,3.94
2022-12-03T10:53:17.958Z,3.95
2022-12-03T10:55:47.866Z,3.90
2022-12-03T10:58:21.680Z,3.89
2022-12-03T11:00:52.030Z,3.90
2022-12-03T11:03:26.634Z,3.84
2022-12-03T11:05:56.549Z,3.78
2022-12-03T11:08:28.000Z,3.73
2022-12-03T11:11:07.338Z,3.69
2022-12-03T11:13:35.594Z,3.69
2022-12-03T11:16:08.389Z,3.71
2022-12-03T11:18:36.875Z,3.73
2022-12-03T11:21:17.002Z,3.76
2022-12-03T11:23:46.020Z,3.77
2022-12-03T11:26:19.497Z,3.79
2022-12-03T11:28:53.144Z,3.80
2022-12-03T11:31:46.712Z,3.80
2022-12-03T11:34:18.192Z,3.83
2022-12-03T11:37:11.020Z,3.84
2022-12-03T11:39:45.013Z,3.83
2022-12-03T11:42:28.129Z,3.80
2022-12-03T11:45:19.122Z,3.82
2022-12-03T11:48:02.317Z,3.87
2022-12-03T11:50:40.100Z,3.92
2022-12-03T11:53:13.337Z,3.99
2022-12-03T11:55:47.375Z,3.99
2022-12-03T11:58:30.605Z,4.02
2022-12-03T12:01:01.777Z,4.03
2022-12-03T12:03:35.922Z,4.04
2022-12-03T12:06:09.824Z,4.07
2022-12-03T12:08:59.229Z,4.09
2022-12-03T12:11:32.711Z,4.07
2022-12-03T12:14:04.941Z,4.03
2022-12-03T12:16:50.851Z,4.03
2022-12-03T12:20:10.608Z,4.00
2022-12-03T12:22:39.511Z,4.01
2022-12-03T12:25:29.613Z,4.04
2022-12-03T12:27:57.883Z,4.07
2022-12-03T12:30:26.193Z,4.08
2022-12-03T12:33:33.365Z,4.05
2022-12-03T12:36:08.346Z,4.03
2022-12-03T12:38:36.664Z,4.01
2022-12-03T12:41:10.038Z,4.00
2022-12-03T12:43:39.673Z,4.03
2022-12-03T12:46:46.167Z,4.01
2022-12-03T12:49:02.432Z,3.98
2022-12-03T12:51:30.917Z,3.94
2022-12-03T12:53:59.215Z,3.93
2022-12-03T12:56:32.282Z,3.96
2022-12-03T12:59:15.745Z,3.96
2022-12-03T13:01:46.012Z,3.98
2022-12-03T13:04:17.101Z,3.99
2022-12-03T13:06:46.987Z,3.98
2022-12-03T13:09:21.813Z,3.94
2022-12-03T13:11:54.497Z,3.94
2022-12-03T13:14:24.162Z,3.94
2022-12-03T13:16:55.372Z,3.93
2022-12-03T13:19:29.644Z,3.91
2022-12-03T13:22:02.005Z,3.93
2022-12-03T13:24:43.943Z,3.90
2022-12-03T13:27:17.886Z,3.88
2022-12-03T13:30:00.831Z,3.86
2022-12-03T13:32:35.082Z,3.86
2022-12-03T13:35:12.220Z,3.84
2022-12-03T13:37:40.506Z,3.82
2022-12-03T13:40:35.085Z,3.85
2022-12-03T13:43:12.843Z,3.87
2022-12-03T13:45:44.232Z,3.85
2022-12-03T13:48:21.790Z,3.83
2022-12-03T13:50:52.877Z,3.84
2022-12-03T13:53:37.621Z,3.80
2022-12-03T13:56:21.037Z,3.78
2022-12-03T13:58:49.448Z,3.77
2022-12-03T14:01:17.818Z,3.76
2022-12-03T14:03:46.215Z,3.74
2022-12-03T14:06:14.594Z,3.71
2022-12-03T14:08:42.914Z,3.69
2022-12-03T14:11:31.292Z,3.68
2022-12-03T14:13:59.679Z,3.62
2022-12-03T14:16:28.061Z,3.58
2022-12-03T14:18:56.319Z,3.56
2022-12-03T14:21:24.608Z,3.54
2022-12-03T14:23:53.092Z,3.52
2022-12-03T14:26:21.326Z,3.47
2022-12-03T14:28:49.570Z,3.47
2022-12-03T14:31:17.888Z,3.45
2022-12-03T14:33:46.201Z,3.43
2022-12-03T14:36:14.480Z,3.42
2022-12-03T14:38:42.813Z,3.39
2022-12-03T14:41:30.950Z,3.38
2022-12-03T14:43:59.162Z,3.33
2022-12-03T14:46:27.429Z,3.32
2022-12-03T14:48:55.669Z,3.29
2022-12-03T14:51:23.969Z,3.26
2022-12-03T14:53:52.223Z,3.24
2022-12-03T14:56:20.673Z,3.19
2022-12-03T14:58:48.940Z,3.17
2022-12-03T15:01:17.237Z,3.13
2022-12-03T15:03:45.571Z,3.08
2022-12-03T15:06:13.828Z,3.03
2022-12-03T15:08:42.183Z,2.98
2022-12-03T15:11:10.598Z,2.97
2022-12-03T15:13:38.954Z,2.94
2022-12-03T15:16:07.686Z,2.90
2022-12-03T15:18:35.991Z,2.85
2022-12-03T15:21:04.254Z,2.81
2022-12-03T15:23:32.529Z,2.77
2022-12-03T15:26:00.895Z,2.75
2022-12-03T15:28:29.211Z,2.74
2022-12-03T15:30:57.738Z,2.72
2022-12-03T15:33:26.121Z,2.70
2022-12-03T15:35:54.447Z,2.70
2022-12-03T15:38:22.770Z,2.71
2022-12-03T15:40:51.057Z,2.73
2022-12-03T15:43:19.679Z,2.74
2022-12-03T15:45:48.123Z,2.76
2022-12-03T15:48:16.463Z,2.76
2022-12-03T15:50:44.643Z,2.78
2022-12-03T15:53:12.913Z,2.78
2022-12-03T15:55:41.214Z,2.76
2022-12-03T15:58:09.543Z,2.74
2022-12-03T16:00:37.904Z,2.75
2022-12-03T16:03:06.194Z,2.75
2022-12-03T16:05:34.518Z,2.74
2022-12-03T16:08:02.970Z,2.74
2022-12-03T16:10:31.474Z,2.76
2022-12-03T16:12:59.621Z,2.74
2022-12-03T16:15:27.834Z,2.70
2022-12-03T16:17:56.085Z,2.69
2022-12-03T16:20:24.313Z,2.68
2022-12-03T16:22:52.677Z,2.68
2022-12-03T16:25:21.060Z,2.67
2022-12-03T16:27:49.399Z,2.68
2022-12-03T16:30:18.203Z,2.68
2022-12-03T16:32:46.485Z,2.68
2022-12-03T16:35:14.853Z,2.69
2022-12-03T16:37:43.126Z,2.67
2022-12-03T16:40:12.187Z,2.67
2022-12-03T16:42:40.951Z,2.66
2022-12-03T16:45:09.767Z,2.66
2022-12-03T16:47:38.326Z,2.65
2022-12-03T16:50:11.594Z,2.65
2022-12-03T16:52:42.835Z,2.65
2022-12-03T16:55:11.121Z,2.64
2022-12-03T16:57:39.372Z,2.61
2022-12-03T17:00:08.260Z,2.61
2022-12-03T17:02:36.589Z,2.61
2022-12-03T17:05:05.174Z,2.58
2022-12-03T17:07:33.486Z,2.52
2022-12-03T17:10:01.761Z,2.47
2022-12-03T17:12:42.205Z,2.45
2022-12-03T17:15:16.399Z,2.44
2022-12-03T17:17:44.686Z,2.44
2022-12-03T17:20:14.883Z,2.43
2022-12-03T17:22:43.308Z,2.44
2022-12-03T17:25:11.881Z,2.43
2022-12-03T17:27:45.174Z,2.43
2022-12-03T17:30:14.605Z,2.43
2022-12-03T17:32:43.440Z,2.45
2022-12-03T17:35:12.427Z,2.44
2022-12-03T17:37:41.067Z,2.43
2022-12-03T17:40:11.852Z,2.41
2022-12-03T17:42:40.118Z,2.40
2022-12-03T17:45:09.152Z,2.35
2022-12-03T17:47:37.505Z,2.32
2022-12-03T17:50:07.509Z,2.32
2022-12-03T17:52:35.809Z,2.29
2022-12-03T17:55:16.288Z,2.30
2022-12-03T17:57:52.187Z,2.25
2022-12-03T18:00:20.569Z,2.24
2022-12-03T18:02:48.819Z,2.23
2022-12-03T18:05:17.159Z,2.21
2022-12-03T18:07:45.498Z,2.17
2022-12-03T18:10:13.690Z,2.15
2022-12-03T18:12:41.939Z,2.08
2022-12-03T18:15:10.720Z,2.02
2022-12-03T18:17:39.004Z,2.01
2022-12-03T18:20:07.753Z,1.97
2022-12-03T18:22:36.427Z,1.95
2022-12-03T18:25:05.360Z,1.96
2022-12-03T18:27:33.973Z,1.90
2022-12-03T18:30:02.311Z,1.88
2022-12-03T18:32:30.661Z,1.82
2022-12-03T18:34:58.925Z,1.77
2022-12-03T18:37:28.972Z,1.72
2022-12-03T18:39:58.301Z,1.68
2022-12-03T18:42:27.244Z,1.67
2022-12-03T18:44:56.674Z,1.67
2022-12-03T18:47:28.901Z,1.66
2022-12-03T18:49:57.769Z,1.65
2022-12-03T18:52:26.335Z,1.63
2022-12-03T18:54:55.484Z,1.63
2022-12-03T18:57:23.983Z,1.63
2022-12-03T18:59:52.281Z,1.63
2022-12-03T19:05:10.521Z,1.59
2022-12-03T19:07:38.938Z,1.56
2022-12-03T19:10:07.999Z,1.56
2022-12-03T19:12:37.280Z,1.55
2022-12-03T19:15:06.356Z,1.55
2022-12-03T19:17:34.653Z,1.56
2022-12-03T19:20:03.386Z,1.57
2022-12-03T19:22:31.703Z,1.54
2022-12-03T19:24:59.963Z,1.51
2022-12-03T19:27:31.833Z,1.51
2022-12-03T19:30:00.116Z,1.48
2022-12-03T19:32:28.463Z,1.48
2022-12-03T19:34:56.750Z,1.47
2022-12-03T19:37:25.140Z,1.44
2022-12-03T19:39:54.650Z,1.41
2022-12-03T19:42:23.238Z,1.38
2022-12-03T19:44:51.491Z,1.35
2022-12-03T19:47:20.037Z,1.30
2022-12-03T19:49:48.322Z,1.24
2022-12-03T19:52:16.592Z,1.20
2022-12-03T19:54:44.873Z,1.16
2022-12-03T19:57:15.769Z,1.15
2022-12-03T19:59:46.447Z,1.14
2022-12-03T20:02:14.789Z,1.09
2022-12-03T20:04:43.577Z,1.07
2022-12-03T20:07:11.782Z,1.07
2022-12-03T20:09:40.014Z,1.07
2022-12-03T20:12:08.201Z,1.05
2022-12-03T20:14:36.443Z,1.03
2022-12-03T20:17:04.791Z,1.00
2022-12-03T20:19:33.086Z,0.99
2022-12-03T20:22:03.017Z,0.95
2022-12-03T20:24:31.488Z,0.89
2022-12-03T20:26:59.725Z,0.88
2022-12-03T20:29:27.921Z,0.86
2022-12-03T20:31:56.358Z,0.85
2022-12-03T20:34:24.711Z,0.84
2022-12-03T20:36:52.955Z,0.82
2022-12-03T20:39:21.194Z,0.80
2022-12-03T20:41:49.710Z,0.78
2022-12-03T20:44:20.992Z,0.75
2022-12-03T20:46:49.704Z,0.72
2022-12-03T20:49:18.283Z,0.72
2022-12-03T20:51:47.432Z,0.70
2022-12-03T20:54:15.733Z,0.70
2022-12-03T20:56:44.064Z,0.69
2022-12-03T20:59:15.543Z,0.66
2022-12-03T21:01:44.260Z,0.65
2022-12-03T21:04:18.214Z,0.65
2022-12-03T21:06:46.516Z,0.69
2022-12-03T21:09:14.788Z,0.72
2022-12-03T21:11:43.908Z,0.72
2022-12-03T21:14:12.586Z,0.72
2022-12-03T21:19:31.352Z,0.73
2022-12-03T21:22:00.434Z,0.74
2022-12-03T21:24:30.316Z,0.75
2022-12-03T21:26:58.977Z,0.75
2022-12-03T21:29:27.171Z,0.75
2022-12-03T21:31:55.427Z,0.76
2022-12-03T21:34:24.236Z,0.81
2022-12-03T21:36:52.960Z,0.79
2022-12-03T21:39:21.265Z,0.81
2022-12-03T21:42:36.170Z,0.81
2022-12-03T21:44:38.583Z,0.84
2022-12-03T21:47:12.689Z,0.87
2022-12-03T21:49:43.346Z,0.91
2022-12-03T21:52:11.979Z,0.91
2022-12-03T21:54:40.215Z,0.92
2022-12-03T21:57:08.556Z,0.91
2022-12-03T21:59:36.874Z,0.93
2022-12-03T22:02:05.316Z,0.95
2022-12-03T22:04:33.753Z,0.96
2022-12-03T22:07:02.368Z,0.97
2022-12-03T22:09:31.870Z,0.96
2022-12-03T22:12:01.526Z,0.98
2022-12-03T22:14:30.576Z,0.96
2022-12-03T22:17:02.452Z,0.97
2022-12-03T22:19:31.796Z,0.99
2022-12-03T22:22:00.695Z,0.99
2022-12-03T22:24:29.504Z,1.00
2022-12-03T22:26:57.857Z,1.00
2022-12-03T22:29:26.152Z,0.99
2022-12-03T22:31:54.484Z,1.00
2022-12-03T22:34:22.759Z,1.02
2022-12-03T22:36:50.962Z,1.00
2022-12-03T22:39:19.255Z,0.98
2022-12-03T22:41:47.547Z,0.99
2022-12-03T22:44:15.897Z,1.02
2022-12-03T22:46:44.343Z,1.03
2022-12-03T22:49:13.760Z,1.06
2022-12-03T22:51:46.370Z,1.09
2022-12-03T22:54:18.160Z,1.12
2022-12-03T22:56:49.213Z,1.15
2022-12-03T22:59:17.564Z,1.16
2022-12-03T23:01:45.950Z,1.17
2022-12-03T23:04:14.468Z,1.19
2022-12-03T23:06:43.736Z,1.21
2022-12-03T23:09:12.041Z,1.22
2022-12-03T23:11:40.416Z,1.24
2022-12-03T23:14:08.626Z,1.22
2022-12-03T23:16:37.032Z,1.18
2022-12-03T23:19:05.479Z,1.17
2022-12-03T23:21:35.289Z,1.17
2022-12-03T23:24:05.539Z,1.17
2022-12-03T23:26:36.852Z,1.19
2022-12-03T23:29:06.724Z,1.20
2022-12-03T23:31:35.696Z,1.20
2022-12-03T23:34:04.724Z,1.21
2022-12-03T23:36:36.042Z,1.19
2022-12-03T23:39:06.851Z,1.20
2022-12-03T23:41:36.231Z,1.19
2022-12-03T23:44:07.078Z,1.21
2022-12-03T23:46:39.624Z,1.22
2022-12-03T23:49:07.987Z,1.24
2022-12-03T23:51:36.932Z,1.23
2022-12-03T23:54:05.202Z,1.23
2022-12-03T23:56:37.315Z,1.22
2022-12-03T23:59:05.718Z,1.22
